createdAt,value
2022-08-14T00:02:05.005Z,25.03
2022-08-14T00:04:42.438Z,25.03
2022-08-14T00:07:14.208Z,25.01
2022-08-14T00:10:02.287Z,24.85
2022-08-14T00:12:37.783Z,24.89
2022-08-14T00:15:16.140Z,24.82
2022-08-14T00:17:47.863Z,24.66
2022-08-14T00:20:30.379Z,24.66
2022-08-14T00:23:16.866Z,24.55
2022-08-14T00:26:05.738Z,24.52
2022-08-14T00:28:35.873Z,24.52
2022-08-14T00:31:05.479Z,24.43
2022-08-14T00:33:52.020Z,24.43
2022-08-14T00:36:36.035Z,24.46
2022-08-14T00:39:14.046Z,24.43
2022-08-14T00:41:42.304Z,24.48
2022-08-14T00:44:09.845Z,24.53
2022-08-14T00:46:38.550Z,24.50
2022-08-14T00:49:08.039Z,24.66
2022-08-14T00:51:39.580Z,24.58
2022-08-14T00:54:21.215Z,24.52
2022-08-14T00:56:55.357Z,24.52
2022-08-14T00:59:25.928Z,24.37
2022-08-14T01:01:58.326Z,24.44
2022-08-14T01:04:37.650Z,24.39
2022-08-14T01:07:21.344Z,24.38
2022-08-14T01:09:58.709Z,24.42
2022-08-14T01:12:29.765Z,24.38
2022-08-14T01:15:02.045Z,24.37
2022-08-14T01:17:52.070Z,24.23
2022-08-14T01:20:40.921Z,24.22
2022-08-14T01:23:16.571Z,24.17
2022-08-14T01:25:51.558Z,24.12
2022-08-14T01:28:46.730Z,24.03
2022-08-14T01:31:17.416Z,23.84
2022-08-14T01:35:16.007Z,23.72
2022-08-14T01:36:39.371Z,23.73
2022-08-14T01:39:13.799Z,23.54
2022-08-14T01:41:44.306Z,23.47
2022-08-14T01:44:33.530Z,23.45
2022-08-14T01:47:12.241Z,23.38
2022-08-14T01:49:59.399Z,23.54
2022-08-14T01:52:33.931Z,23.38
2022-08-14T01:55:16.093Z,23.26
2022-08-14T01:58:00.738Z,23.46
2022-08-14T02:00:30.969Z,23.42
2022-08-14T02:03:06.176Z,23.50
2022-08-14T02:05:38.542Z,23.53
2022-08-14T02:08:08.835Z,23.45
2022-08-14T02:10:47.097Z,23.39
2022-08-14T02:13:16.538Z,23.24
2022-08-14T02:15:45.475Z,23.25
2022-08-14T02:18:15.507Z,23.17
2022-08-14T02:20:42.860Z,23.10
2022-08-14T02:23:09.738Z,23.19
2022-08-14T02:25:39.636Z,23.20
2022-08-14T02:28:24.386Z,23.19
2022-08-14T02:30:54.548Z,23.13
2022-08-14T02:33:22.548Z,23.17
2022-08-14T02:35:53.442Z,23.04
2022-08-14T02:38:34.333Z,23.06
2022-08-14T02:41:02.945Z,22.91
2022-08-14T02:43:37.130Z,22.88
2022-08-14T02:46:12.998Z,22.67
2022-08-14T02:49:01.079Z,22.67
2022-08-14T02:51:30.518Z,22.62
2022-08-14T02:53:58.384Z,22.57
2022-08-14T02:56:30.515Z,22.48
2022-08-14T02:59:15.902Z,22.32
2022-08-14T03:01:51.014Z,22.24
2022-08-14T03:04:22.781Z,22.16
2022-08-14T03:07:06.644Z,22.13
2022-08-14T03:09:42.399Z,22.08
2022-08-14T03:12:31.802Z,22.09
2022-08-14T03:15:08.911Z,22.13
2022-08-14T03:17:56.551Z,22.17
2022-08-14T03:20:28.846Z,22.19
2022-08-14T03:23:03.241Z,22.23
2022-08-14T03:25:34.050Z,22.20
2022-08-14T03:28:14.697Z,22.16
2022-08-14T03:30:59.908Z,22.07
2022-08-14T03:33:38.158Z,22.10
2022-08-14T03:37:51.592Z,22.12
2022-08-14T03:39:22.074Z,22.09
2022-08-14T03:41:55.802Z,22.11
2022-08-14T03:45:20.165Z,21.93
2022-08-14T03:47:12.145Z,22.02
2022-08-14T03:49:44.687Z,22.14
2022-08-14T03:52:37.726Z,22.16
2022-08-14T03:55:00.378Z,22.18
2022-08-14T03:57:32.680Z,22.11
2022-08-14T04:00:03.673Z,22.03
2022-08-14T04:02:37.406Z,22.16
2022-08-14T04:05:13.054Z,22.19
2022-08-14T04:07:49.692Z,22.21
2022-08-14T04:10:32.236Z,22.18
2022-08-14T04:13:04.392Z,22.21
2022-08-14T04:15:55.824Z,22.07
2022-08-14T04:18:20.468Z,22.11
2022-08-14T04:20:54.301Z,22.10
2022-08-14T04:23:29.494Z,22.13
2022-08-14T04:26:02.201Z,21.94
2022-08-14T04:29:07.409Z,22.06
2022-08-14T04:31:18.681Z,22.14
2022-08-14T04:34:06.406Z,22.19
2022-08-14T04:36:54.905Z,22.18
2022-08-14T04:39:46.262Z,22.16
2022-08-14T04:42:32.498Z,22.21
2022-08-14T04:45:00.664Z,22.24
2022-08-14T04:47:46.673Z,22.29
2022-08-14T04:50:13.599Z,22.52
2022-08-14T04:52:40.985Z,22.71
2022-08-14T04:55:11.020Z,22.90
2022-08-14T04:57:39.237Z,23.07
2022-08-14T05:00:07.492Z,23.23
2022-08-14T05:02:43.590Z,23.46
2022-08-14T05:05:10.565Z,23.63
2022-08-14T05:07:54.171Z,23.74
2022-08-14T05:10:25.967Z,24.06
2022-08-14T05:13:12.964Z,24.40
2022-08-14T05:15:42.487Z,24.59
2022-08-14T05:18:17.579Z,24.67
2022-08-14T05:21:56.781Z,24.95
2022-08-14T05:23:51.958Z,25.30
2022-08-14T05:26:21.581Z,25.62
2022-08-14T05:28:48.861Z,25.83
2022-08-14T05:31:20.755Z,26.25
2022-08-14T05:33:56.546Z,26.63
2022-08-14T05:36:24.905Z,26.98
2022-08-14T05:38:53.280Z,27.37
2022-08-14T05:41:21.765Z,27.71
2022-08-14T05:43:49.520Z,28.17
2022-08-14T05:46:23.407Z,28.69
2022-08-14T05:48:53.745Z,29.24
2022-08-14T05:51:22.188Z,29.78
2022-08-14T05:53:57.014Z,30.19
2022-08-14T05:56:29.234Z,30.43
2022-08-14T05:58:56.253Z,30.80
2022-08-14T06:01:23.614Z,31.24
2022-08-14T06:03:50.689Z,31.55
2022-08-14T06:06:21.586Z,31.90
2022-08-14T06:08:48.475Z,31.78
2022-08-14T06:11:20.419Z,31.49
2022-08-14T06:13:58.495Z,32.01
2022-08-14T06:16:25.619Z,31.78
2022-08-14T06:18:53.281Z,32.21
2022-08-14T06:21:22.973Z,32.39
2022-08-14T06:23:50.531Z,32.67
2022-08-14T06:26:21.237Z,33.57
2022-08-14T06:28:52.439Z,34.20
2022-08-14T06:31:21.035Z,34.64
2022-08-14T06:35:09.623Z,35.47
2022-08-14T06:36:37.947Z,37.08
2022-08-14T06:39:08.210Z,38.27
2022-08-14T06:41:56.976Z,39.38
2022-08-14T06:44:30.729Z,40.13
2022-08-14T06:47:04.385Z,40.95
2022-08-14T06:49:40.536Z,40.92
2022-08-14T06:52:16.759Z,39.16
2022-08-14T06:54:45.640Z,39.20
2022-08-14T06:57:13.844Z,38.94
2022-08-14T06:59:40.980Z,39.40
2022-08-14T07:02:28.862Z,39.51
2022-08-14T07:05:26.328Z,38.94
2022-08-14T07:07:53.441Z,37.93
2022-08-14T07:10:22.192Z,37.54
2022-08-14T07:12:56.531Z,36.91
2022-08-14T07:15:29.789Z,36.90
2022-08-14T07:18:00.488Z,36.81
2022-08-14T07:20:30.854Z,36.59
2022-08-14T07:23:07.703Z,36.41
2022-08-14T07:25:38.166Z,36.24
2022-08-14T07:28:20.686Z,35.44
2022-08-14T07:30:51.581Z,34.89
2022-08-14T07:33:24.442Z,35.25
2022-08-14T07:35:59.671Z,35.18
2022-08-14T07:38:32.056Z,35.04
2022-08-14T07:41:12.026Z,35.29
2022-08-14T07:43:44.197Z,35.37
2022-08-14T07:46:21.370Z,34.98
2022-08-14T07:48:56.774Z,34.68
2022-08-14T07:51:24.009Z,34.35
2022-08-14T07:53:57.162Z,34.08
2022-08-14T07:56:46.958Z,33.76
2022-08-14T07:59:12.711Z,33.49
2022-08-14T08:01:48.484Z,33.46
2022-08-14T08:04:27.315Z,33.51
2022-08-14T08:06:54.899Z,33.50
2022-08-14T08:09:32.458Z,33.30
2022-08-14T08:12:04.874Z,33.45
2022-08-14T08:14:56.873Z,33.68
2022-08-14T08:17:24.151Z,33.73
2022-08-14T08:19:51.855Z,33.91
2022-08-14T08:22:21.224Z,34.17
2022-08-14T08:24:50.430Z,34.18
2022-08-14T08:27:22.469Z,33.98
2022-08-14T08:29:51.269Z,33.74
2022-08-14T08:32:18.872Z,33.81
2022-08-14T08:34:48.379Z,33.76
2022-08-14T08:37:16.196Z,33.67
2022-08-14T08:40:03.344Z,33.84
2022-08-14T08:42:41.233Z,33.93
2022-08-14T08:45:15.579Z,33.90
2022-08-14T08:47:45.346Z,33.99
2022-08-14T08:50:31.906Z,34.20
2022-08-14T08:53:03.293Z,33.92
2022-08-14T08:55:40.196Z,34.28
2022-08-14T08:58:16.572Z,34.01
2022-08-14T09:00:57.395Z,33.46
2022-08-14T09:03:28.938Z,33.37
2022-08-14T09:06:03.878Z,33.82
2022-08-14T09:08:34.043Z,33.96
2022-08-14T09:11:18.924Z,34.30
2022-08-14T09:13:53.586Z,34.48
2022-08-14T09:16:24.888Z,34.47
2022-08-14T09:18:53.427Z,34.55
2022-08-14T09:21:24.155Z,34.35
2022-08-14T09:24:29.194Z,34.65
2022-08-14T09:26:43.753Z,34.67
2022-08-14T09:29:11.742Z,34.47
2022-08-14T09:31:52.804Z,34.47
2022-08-14T09:34:53.258Z,34.50
2022-08-14T09:37:44.958Z,34.48
2022-08-14T09:40:55.570Z,34.55
2022-08-14T09:43:31.301Z,34.50
2022-08-14T09:46:01.128Z,34.13
2022-08-14T09:48:31.019Z,34.34
2022-08-14T09:54:18.881Z,34.08
2022-08-14T09:56:30.250Z,34.27
2022-08-14T09:59:15.093Z,34.20
2022-08-14T10:01:52.829Z,33.94
2022-08-14T10:04:34.515Z,34.20
2022-08-14T10:07:08.391Z,34.35
2022-08-14T10:09:57.589Z,34.54
2022-08-14T10:12:45.368Z,34.50
2022-08-14T10:15:32.792Z,34.51
2022-08-14T10:18:18.546Z,34.63
2022-08-14T10:21:01.437Z,34.67
2022-08-14T10:23:43.338Z,34.73
2022-08-14T10:26:22.343Z,34.74
2022-08-14T10:29:17.879Z,34.64
2022-08-14T10:31:44.509Z,34.41
2022-08-14T10:34:25.945Z,34.06
2022-08-14T10:37:14.481Z,34.16
2022-08-14T10:40:01.929Z,34.07
2022-08-14T10:42:43.679Z,33.88
2022-08-14T10:45:34.067Z,33.77
2022-08-14T10:48:24.365Z,33.78
2022-08-14T10:51:01.219Z,33.82
2022-08-14T10:53:39.307Z,33.78
2022-08-14T10:56:21.662Z,33.96
2022-08-14T10:59:08.491Z,34.08
2022-08-14T11:01:41.834Z,33.90
2022-08-14T11:04:27.553Z,33.78
2022-08-14T11:06:56.664Z,33.56
2022-08-14T11:09:26.104Z,33.43
2022-08-14T11:12:34.294Z,33.11
2022-08-14T11:15:03.167Z,32.80
2022-08-14T11:17:32.754Z,32.74
2022-08-14T11:20:03.416Z,32.75
2022-08-14T11:22:55.537Z,32.89
2022-08-14T11:25:23.505Z,32.95
2022-08-14T11:27:56.139Z,33.03
2022-08-14T11:30:51.755Z,33.10
2022-08-14T11:33:14.034Z,33.06
2022-08-14T11:35:48.693Z,33.14
2022-08-14T11:38:18.049Z,33.09
2022-08-14T11:40:46.846Z,32.99
2022-08-14T11:43:15.498Z,32.99
2022-08-14T11:45:48.713Z,32.95
2022-08-14T11:49:04.408Z,32.98
2022-08-14T11:51:20.900Z,32.67
2022-08-14T11:53:55.219Z,32.82
2022-08-14T11:56:25.497Z,32.72
2022-08-14T11:58:56.649Z,32.66
2022-08-14T12:01:33.371Z,32.74
2022-08-14T12:04:33.016Z,32.67
2022-08-14T12:07:01.694Z,32.77
2022-08-14T12:09:35.008Z,32.83
2022-08-14T12:12:35.136Z,32.76
2022-08-14T12:15:05.341Z,33.05
2022-08-14T12:17:50.592Z,32.92
2022-08-14T12:20:32.358Z,32.69
2022-08-14T12:23:02.035Z,32.74
2022-08-14T12:25:29.772Z,32.71
2022-08-14T12:28:01.385Z,32.67
2022-08-14T12:30:42.832Z,32.48
2022-08-14T12:33:26.930Z,32.68
2022-08-14T12:36:04.126Z,32.67
2022-08-14T12:38:44.176Z,32.81
2022-08-14T12:41:21.948Z,33.01
2022-08-14T12:44:02.346Z,32.89
2022-08-14T12:46:43.610Z,32.77
2022-08-14T12:49:17.672Z,32.78
2022-08-14T12:51:56.912Z,32.80
2022-08-14T12:54:27.267Z,32.61
2022-08-14T12:57:19.895Z,32.77
2022-08-14T12:59:49.584Z,32.65
2022-08-14T13:02:26.124Z,32.69
2022-08-14T13:05:16.118Z,32.77
2022-08-14T13:07:45.753Z,32.73
2022-08-14T13:10:47.420Z,32.77
2022-08-14T13:13:13.490Z,32.80
2022-08-14T13:15:48.418Z,32.98
2022-08-14T13:18:26.565Z,32.97
2022-08-14T13:20:57.894Z,33.02
2022-08-14T13:23:36.291Z,33.02
2022-08-14T13:26:04.867Z,32.91
2022-08-14T13:28:39.813Z,32.91
2022-08-14T13:31:24.663Z,32.99
2022-08-14T13:33:57.723Z,32.86
2022-08-14T13:36:51.992Z,32.80
2022-08-14T13:39:20.316Z,32.82
2022-08-14T13:41:48.744Z,32.81
2022-08-14T13:44:27.423Z,32.91
2022-08-14T13:46:54.563Z,32.89
2022-08-14T13:49:23.782Z,32.97
2022-08-14T13:51:54.183Z,32.92
2022-08-14T13:54:22.595Z,32.97
2022-08-14T13:56:49.539Z,33.04
2022-08-14T13:59:20.625Z,33.13
2022-08-14T14:02:08.633Z,33.30
2022-08-14T14:04:46.372Z,33.25
2022-08-14T14:07:21.597Z,33.16
2022-08-14T14:09:54.759Z,33.12
2022-08-14T14:12:40.676Z,33.00
2022-08-14T14:15:17.735Z,33.03
2022-08-14T14:17:47.517Z,33.04
2022-08-14T14:20:34.868Z,33.03
2022-08-14T14:23:10.481Z,33.03
2022-08-14T14:25:51.212Z,33.10
2022-08-14T14:28:34.262Z,33.12
2022-08-14T14:31:06.098Z,33.23
2022-08-14T14:33:47.116Z,33.22
2022-08-14T14:36:24.949Z,33.26
2022-08-14T14:38:55.965Z,33.31
2022-08-14T14:41:37.951Z,33.33
2022-08-14T14:44:09.035Z,33.37
2022-08-14T14:46:41.509Z,33.43
2022-08-14T14:49:14.597Z,33.45
2022-08-14T14:51:44.479Z,33.23
2022-08-14T14:54:14.469Z,33.16
2022-08-14T14:56:50.458Z,33.26
2022-08-14T14:59:20.155Z,33.34
2022-08-14T15:01:54.062Z,33.19
2022-08-14T15:04:21.935Z,33.32
2022-08-14T15:06:50.055Z,33.37
2022-08-14T15:09:20.301Z,33.36
2022-08-14T15:11:47.480Z,33.30
2022-08-14T15:14:55.109Z,33.21
2022-08-14T15:17:02.438Z,33.26
2022-08-14T15:19:29.630Z,33.25
2022-08-14T15:21:58.088Z,33.23
2022-08-14T15:24:27.003Z,33.32
2022-08-14T15:26:58.544Z,33.25
2022-08-14T15:29:27.040Z,33.24
2022-08-14T15:31:54.144Z,33.44
2022-08-14T15:34:44.381Z,33.47
2022-08-14T15:37:12.774Z,33.56
2022-08-14T15:39:44.404Z,33.49
2022-08-14T15:42:16.300Z,33.72
2022-08-14T15:44:58.330Z,33.73
2022-08-14T15:47:32.309Z,33.70
2022-08-14T15:50:04.242Z,33.71
2022-08-14T15:52:35.136Z,33.54
2022-08-14T15:55:15.175Z,33.42
2022-08-14T15:58:01.418Z,33.56
2022-08-14T16:00:53.750Z,33.54
2022-08-14T16:03:27.062Z,33.47
2022-08-14T16:06:02.656Z,33.51
2022-08-14T16:08:30.917Z,33.44
2022-08-14T16:11:05.512Z,33.50
2022-08-14T16:13:42.830Z,33.57
2022-08-14T16:16:49.223Z,33.59
2022-08-14T16:19:18.359Z,33.60
2022-08-14T16:22:01.199Z,33.50
2022-08-14T16:24:33.144Z,33.50
2022-08-14T16:27:01.416Z,33.50
2022-08-14T16:29:31.700Z,33.45
2022-08-14T16:32:01.470Z,33.47
2022-08-14T16:34:45.821Z,33.49
2022-08-14T16:37:18.388Z,33.45
2022-08-14T16:39:48.695Z,33.42
2022-08-14T16:43:02.259Z,33.36
2022-08-14T16:45:04.460Z,33.33
2022-08-14T16:47:35.227Z,33.27
2022-08-14T16:50:11.672Z,33.20
2022-08-14T16:53:00.678Z,33.14
2022-08-14T16:55:30.100Z,33.12
2022-08-14T16:57:58.642Z,33.15
2022-08-14T17:00:43.554Z,33.18
2022-08-14T17:03:12.214Z,33.11
2022-08-14T17:05:46.564Z,33.04
2022-08-14T17:08:32.079Z,33.05
2022-08-14T17:11:11.149Z,33.07
2022-08-14T17:13:59.020Z,32.97
2022-08-14T17:16:38.274Z,32.89
2022-08-14T17:19:11.592Z,32.81
2022-08-14T17:21:42.755Z,32.74
2022-08-14T17:24:57.382Z,32.69
2022-08-14T17:27:05.004Z,32.63
2022-08-14T17:29:54.446Z,32.51
2022-08-14T17:32:44.388Z,32.40
2022-08-14T17:38:38.560Z,32.23
2022-08-14T17:41:17.349Z,32.19
2022-08-14T17:43:44.197Z,32.10
2022-08-14T17:46:48.006Z,32.03
2022-08-14T17:49:32.241Z,31.97
2022-08-14T17:52:17.159Z,31.86
2022-08-14T17:54:52.767Z,31.75
2022-08-14T17:57:28.513Z,31.65
2022-08-14T17:59:57.002Z,31.57
2022-08-14T18:02:31.361Z,31.50
2022-08-14T18:05:00.763Z,31.39
2022-08-14T18:08:00.093Z,31.34
2022-08-14T18:10:51.715Z,31.30
2022-08-14T18:13:10.791Z,31.18
2022-08-14T18:15:41.231Z,31.09
2022-08-14T18:18:13.177Z,30.95
2022-08-14T18:21:41.152Z,30.94
2022-08-14T18:23:31.409Z,30.78
2022-08-14T18:25:59.869Z,30.72
2022-08-14T18:28:50.828Z,30.61
2022-08-14T18:31:22.704Z,30.50
2022-08-14T18:34:31.087Z,30.40
2022-08-14T18:37:14.345Z,30.27
2022-08-14T18:40:02.325Z,30.20
2022-08-14T18:42:34.908Z,30.13
2022-08-14T18:45:02.195Z,30.06
2022-08-14T18:48:05.059Z,29.98
2022-08-14T18:50:32.161Z,29.89
2022-08-14T18:53:10.978Z,29.78
2022-08-14T18:55:52.695Z,29.69
2022-08-14T18:58:31.289Z,29.61
2022-08-14T19:01:02.125Z,29.58
2022-08-14T19:03:34.280Z,29.50
2022-08-14T19:06:09.503Z,29.50
2022-08-14T19:08:47.559Z,29.43
2022-08-14T19:11:32.677Z,29.37
2022-08-14T19:14:05.046Z,29.27
2022-08-14T19:16:37.871Z,29.19
2022-08-14T19:19:12.004Z,29.13
2022-08-14T19:21:57.677Z,29.09
2022-08-14T19:24:33.848Z,28.99
2022-08-14T19:27:23.246Z,28.87
2022-08-14T19:30:19.714Z,28.82
2022-08-14T19:32:50.769Z,28.79
2022-08-14T19:35:19.256Z,28.75
2022-08-14T19:37:56.947Z,28.77
2022-08-14T19:40:42.698Z,28.86
2022-08-14T19:43:11.787Z,28.93
2022-08-14T19:45:39.214Z,28.91
2022-08-14T19:48:14.466Z,29.02
2022-08-14T19:50:46.156Z,29.02
2022-08-14T19:53:17.753Z,29.06
2022-08-14T19:56:01.897Z,28.97
2022-08-14T19:58:55.268Z,28.90
2022-08-14T20:01:28.692Z,29.01
2022-08-14T20:04:45.713Z,28.85
2022-08-14T20:06:56.945Z,28.78
2022-08-14T20:11:07.737Z,28.72
2022-08-14T20:12:34.730Z,28.75
2022-08-14T20:15:17.871Z,28.71
2022-08-14T20:17:53.686Z,28.67
2022-08-14T20:20:32.172Z,28.64
2022-08-14T20:23:11.140Z,28.64
2022-08-14T20:25:45.519Z,28.67
2022-08-14T20:28:31.894Z,28.63
2022-08-14T20:31:19.864Z,28.53
2022-08-14T20:34:07.897Z,28.43
2022-08-14T20:36:46.341Z,28.42
2022-08-14T20:39:15.271Z,28.41
2022-08-14T20:41:51.013Z,28.47
2022-08-14T20:44:41.767Z,28.26
2022-08-14T20:47:16.289Z,28.28
2022-08-14T20:49:43.844Z,28.29
2022-08-14T20:52:19.207Z,28.20
2022-08-14T20:54:51.387Z,28.27
2022-08-14T20:57:19.415Z,28.28
2022-08-14T20:59:53.724Z,28.36
2022-08-14T21:02:49.797Z,28.28
2022-08-14T21:05:21.911Z,28.32
2022-08-14T21:08:08.105Z,28.16
2022-08-14T21:10:43.827Z,28.20
2022-08-14T21:13:27.772Z,28.13
2022-08-14T21:16:05.321Z,28.20
2022-08-14T21:18:55.554Z,28.16
2022-08-14T21:21:41.812Z,28.18
2022-08-14T21:24:39.783Z,28.14
2022-08-14T21:27:12.488Z,28.12
2022-08-14T21:29:40.955Z,28.10
2022-08-14T21:32:33.633Z,28.03
2022-08-14T21:35:08.131Z,27.99
2022-08-14T21:37:43.955Z,27.96
2022-08-14T21:40:40.036Z,28.02
2022-08-14T21:43:03.753Z,27.98
2022-08-14T21:45:35.726Z,27.82
2022-08-14T21:48:10.750Z,27.68
2022-08-14T21:51:00.652Z,27.88
2022-08-14T21:53:34.375Z,27.88
2022-08-14T21:56:03.958Z,27.88
2022-08-14T21:58:51.909Z,27.87
2022-08-14T22:01:20.243Z,27.96
2022-08-14T22:03:55.209Z,28.03
2022-08-14T22:06:29.087Z,27.97
2022-08-14T22:08:58.266Z,27.93
2022-08-14T22:11:26.183Z,27.90
2022-08-14T22:13:56.629Z,27.85
2022-08-14T22:17:01.975Z,27.91
2022-08-14T22:19:19.867Z,27.89
2022-08-14T22:21:51.035Z,28.03
2022-08-14T22:24:37.554Z,27.99
2022-08-14T22:27:06.851Z,27.89
2022-08-14T22:29:34.694Z,27.85
2022-08-14T22:32:07.263Z,27.90
2022-08-14T22:34:34.996Z,27.97
2022-08-14T22:37:02.225Z,28.00
2022-08-14T22:40:46.223Z,27.98
2022-08-14T22:42:22.864Z,28.01
2022-08-14T22:44:56.416Z,27.91
2022-08-14T22:47:24.836Z,27.97
2022-08-14T22:50:30.120Z,27.88
2022-08-14T22:52:40.591Z,27.97
2022-08-14T22:55:16.958Z,27.95
2022-08-14T22:57:44.334Z,27.82
2022-08-14T23:00:25.342Z,27.91
2022-08-14T23:03:01.986Z,27.82
2022-08-14T23:05:38.728Z,27.79
2022-08-14T23:08:58.527Z,27.81
2022-08-14T23:10:56.464Z,27.75
2022-08-14T23:13:24.604Z,27.71
2022-08-14T23:15:51.483Z,27.50
2022-08-14T23:18:18.438Z,27.39
2022-08-14T23:20:49.620Z,27.48
2022-08-14T23:23:22.578Z,27.39
2022-08-14T23:25:59.766Z,27.48
2022-08-14T23:28:34.127Z,27.47
2022-08-14T23:31:28.424Z,27.28
2022-08-14T23:34:08.244Z,27.03
2022-08-14T23:36:54.342Z,26.98
2022-08-14T23:39:32.932Z,26.97
2022-08-14T23:42:09.267Z,26.90
2022-08-14T23:44:37.586Z,26.84
2022-08-14T23:47:10.988Z,26.82
2022-08-14T23:50:01.297Z,26.67
2022-08-14T23:52:50.456Z,26.60
2022-08-14T23:55:32.566Z,26.62
2022-08-14T23:58:00.670Z,26.75
